KMWH/MWH METAR and TAF weather

Enter ICAO airport designator
Station Type Date Time Source
KMWH METAR 2022/06/30 00:52 UTC NOAA

KMWH 300052Z 18010KT 10SM CLR 28/04 A2998 RMK AO2 SLP146 T02780044


Station Type Date Time Source
KMWH Decoded METAR 2022/06/30 00:52 UTC NOAA

GRANT COUNTY AIRPORT, WA, United States (KMWH) 47-12N 119-19W 362M
Jun 29, 2022 - 08:52 PM EDT / 2022.06.30 0052 UTC
Wind: from the S (180 degrees) at 12 MPH (10 KT):0
Visibility: 10 mile(s):0
Sky conditions: clear
Temperature: 82.0 F (27.8 C)
Dew Point: 39.9 F (4.4 C)
Relative Humidity: 22%
Pressure (altimeter): 29.98 in. Hg (1015 hPa)
ob: KMWH 300052Z 18010KT 10SM CLR 28/04 A2998 RMK AO2 SLP146 T02780044
cycle: 1

Station Type Date Time Source
KMWH TAF 2022/06/29 23:30 UTC NOAA

TAF
AMD KMWH 292328Z 2923/3024 23007KT P6SM SCT250
FM300400 34005KT P6SM FEW250
FM301800 18006KT P6SM SKC

Example: see airport list